createdAt,value
2017-10-06T00:00:02.539Z,9.30
2017-10-06T00:03:04.498Z,9.30
2017-10-06T00:06:06.909Z,9.30
2017-10-06T00:09:08.868Z,9.30
2017-10-06T00:12:11.261Z,9.30
2017-10-06T00:15:13.250Z,9.20
2017-10-06T00:18:15.643Z,9.20
2017-10-06T00:21:17.588Z,9.10
2017-10-06T00:24:19.910Z,9.20
2017-10-06T00:27:21.970Z,9.20
2017-10-06T00:30:25.099Z,9.20
2017-10-06T00:33:27.062Z,9.20
2017-10-06T00:36:30.197Z,9.30
2017-10-06T00:39:32.175Z,9.30
2017-10-06T00:42:34.562Z,9.40
2017-10-06T00:45:36.608Z,9.40
2017-10-06T00:48:39.632Z,9.40
2017-10-06T00:51:41.634Z,9.40
2017-10-06T00:54:44.725Z,9.30
2017-10-06T00:57:46.685Z,9.30
2017-10-06T01:00:48.994Z,9.20
2017-10-06T01:03:51.008Z,9.20
2017-10-06T01:06:53.397Z,9.10
2017-10-06T01:09:55.342Z,9.20
2017-10-06T01:12:57.677Z,9.30
2017-10-06T01:16:00.362Z,9.40
2017-10-06T01:19:03.440Z,9.50
2017-10-06T01:22:06.089Z,9.40
2017-10-06T01:25:08.474Z,9.40
2017-10-06T01:28:11.382Z,9.40
2017-10-06T01:31:13.779Z,9.40
2017-10-06T01:34:15.838Z,9.40
2017-10-06T01:37:18.978Z,9.40
2017-10-06T01:40:20.937Z,9.40
2017-10-06T01:43:24.012Z,9.40
2017-10-06T01:46:25.962Z,9.30
2017-10-06T01:49:28.267Z,9.40
2017-10-06T01:52:30.930Z,9.40
2017-10-06T01:55:33.309Z,9.50
2017-10-06T01:58:36.030Z,9.50
2017-10-06T02:01:38.403Z,9.40
2017-10-06T02:04:41.117Z,9.40
2017-10-06T02:07:43.497Z,9.40
2017-10-06T02:10:45.479Z,9.40
2017-10-06T02:13:47.782Z,9.30
2017-10-06T02:16:49.781Z,9.30
2017-10-06T02:19:52.142Z,9.30
2017-10-06T02:22:54.858Z,9.20
2017-10-06T02:25:57.254Z,9.20
2017-10-06T02:28:59.202Z,9.20
2017-10-06T02:32:01.494Z,9.10
2017-10-06T02:35:04.209Z,9.10
2017-10-06T02:38:07.361Z,9.20
2017-10-06T02:41:09.423Z,9.20
2017-10-06T02:44:11.797Z,9.20
2017-10-06T02:47:13.803Z,9.20
2017-10-06T02:50:16.178Z,9.20
2017-10-06T02:53:18.266Z,9.30
2017-10-06T02:56:20.675Z,9.30
2017-10-06T02:59:22.620Z,9.30
2017-10-06T03:02:26.566Z,9.30
2017-10-06T03:05:28.557Z,9.20
2017-10-06T03:08:30.858Z,9.20
2017-10-06T03:11:32.820Z,9.20
2017-10-06T03:14:35.117Z,9.00
2017-10-06T03:17:37.232Z,9.00
2017-10-06T03:20:39.645Z,8.90
2017-10-06T03:23:41.678Z,8.90
2017-10-06T03:26:44.027Z,8.80
2017-10-06T03:29:46.070Z,8.80
2017-10-06T03:32:48.454Z,8.80
2017-10-06T03:35:50.430Z,8.70
2017-10-06T03:38:52.817Z,8.70
2017-10-06T03:41:54.770Z,8.70
2017-10-06T03:44:57.106Z,8.70
2017-10-06T03:47:59.081Z,8.70
2017-10-06T03:51:01.473Z,8.70
2017-10-06T03:54:03.453Z,8.80
2017-10-06T03:57:05.839Z,8.90
2017-10-06T04:00:07.839Z,8.90
2017-10-06T04:03:10.225Z,8.90
2017-10-06T04:06:12.195Z,8.90
2017-10-06T04:09:14.777Z,8.80
2017-10-06T04:12:17.513Z,8.80
2017-10-06T04:15:19.888Z,8.70
2017-10-06T04:18:21.830Z,8.80
2017-10-06T04:21:24.886Z,8.80
2017-10-06T04:24:26.971Z,8.90
2017-10-06T04:27:29.330Z,8.90
2017-10-06T04:30:31.283Z,8.90
2017-10-06T04:33:33.620Z,8.90
2017-10-06T04:36:36.443Z,9.00
2017-10-06T04:39:38.833Z,9.00
2017-10-06T04:42:40.789Z,9.10
2017-10-06T04:45:43.923Z,9.10
2017-10-06T04:48:45.896Z,9.10
2017-10-06T04:51:48.295Z,9.10
2017-10-06T04:54:50.273Z,9.10
2017-10-06T04:57:52.559Z,9.10
2017-10-06T05:00:54.510Z,9.10
2017-10-06T05:03:56.845Z,9.10
2017-10-06T05:06:58.804Z,9.20
2017-10-06T05:10:01.929Z,9.20
2017-10-06T05:13:04.918Z,9.20
2017-10-06T05:16:08.057Z,9.30
2017-10-06T05:19:10.031Z,9.30
2017-10-06T05:22:12.421Z,9.30
2017-10-06T05:25:14.414Z,9.30
2017-10-06T05:28:17.597Z,9.30
2017-10-06T05:31:20.419Z,9.30
2017-10-06T05:34:22.706Z,9.30
2017-10-06T05:37:25.560Z,9.30
2017-10-06T05:40:27.907Z,9.30
2017-10-06T05:43:29.859Z,9.30
2017-10-06T05:46:32.130Z,9.40
2017-10-06T05:49:34.171Z,9.40
2017-10-06T05:52:37.304Z,9.40
2017-10-06T05:55:39.259Z,9.40
2017-10-06T05:58:41.647Z,9.40
2017-10-06T06:01:43.630Z,9.40
2017-10-06T06:04:46.031Z,9.30
2017-10-06T06:07:47.981Z,9.30
2017-10-06T06:10:51.122Z,9.30
2017-10-06T06:13:53.101Z,9.30
2017-10-06T06:16:55.398Z,9.40
2017-10-06T06:19:57.378Z,9.40
2017-10-06T06:22:59.768Z,9.50
2017-10-06T06:26:02.477Z,9.50
2017-10-06T06:29:04.799Z,9.50
2017-10-06T06:32:06.760Z,9.50
2017-10-06T06:35:09.149Z,9.50
2017-10-06T06:38:11.095Z,9.50
2017-10-06T06:41:13.418Z,9.50
2017-10-06T06:44:15.471Z,9.40
2017-10-06T06:47:17.789Z,9.40
2017-10-06T06:50:20.607Z,9.40
2017-10-06T06:53:23.008Z,9.40
2017-10-06T06:56:25.005Z,9.40
2017-10-06T06:59:27.424Z,9.40
2017-10-06T07:02:29.419Z,9.40
2017-10-06T07:05:31.759Z,9.40
2017-10-06T07:08:33.733Z,9.40
2017-10-06T07:11:36.126Z,9.40
2017-10-06T07:14:38.075Z,9.40
2017-10-06T07:17:40.414Z,9.50
2017-10-06T07:20:42.362Z,9.50
2017-10-06T07:23:44.684Z,9.50
2017-10-06T07:26:46.646Z,9.60
2017-10-06T07:29:49.787Z,9.70
2017-10-06T07:32:51.740Z,9.70
2017-10-06T07:35:54.862Z,9.80
2017-10-06T07:38:56.809Z,9.80
2017-10-06T07:41:59.224Z,9.80
2017-10-06T07:45:02.055Z,10.00
2017-10-06T07:48:04.437Z,10.00
2017-10-06T07:51:06.461Z,10.10
2017-10-06T07:54:08.818Z,10.30
2017-10-06T07:57:11.087Z,10.50
2017-10-06T08:00:14.282Z,10.70
2017-10-06T08:03:16.303Z,10.70
2017-10-06T08:06:18.692Z,10.60
2017-10-06T08:09:20.656Z,10.60
2017-10-06T08:12:23.786Z,10.60
2017-10-06T08:15:25.747Z,10.60
2017-10-06T08:18:29.020Z,10.60
2017-10-06T08:21:31.071Z,10.60
2017-10-06T08:24:34.120Z,10.70
2017-10-06T08:27:36.088Z,10.80
2017-10-06T08:30:38.449Z,10.90
2017-10-06T08:33:40.433Z,11.00
2017-10-06T08:36:42.827Z,11.10
2017-10-06T08:39:44.783Z,11.30
2017-10-06T08:42:47.216Z,11.40
2017-10-06T08:45:49.174Z,11.70
2017-10-06T08:48:52.254Z,13.00
2017-10-06T08:51:54.287Z,13.00
2017-10-06T08:54:56.666Z,13.20
2017-10-06T08:57:58.662Z,13.00
2017-10-06T09:01:01.060Z,12.70
2017-10-06T09:04:03.033Z,12.40
2017-10-06T09:07:05.442Z,12.20
2017-10-06T09:10:07.432Z,12.10
2017-10-06T09:13:09.809Z,12.10
2017-10-06T09:16:11.816Z,12.50
2017-10-06T09:19:14.180Z,13.00
2017-10-06T09:22:16.165Z,13.30
2017-10-06T09:25:18.564Z,13.20
2017-10-06T09:28:20.536Z,13.10
2017-10-06T09:31:22.945Z,12.80
2017-10-06T09:34:24.899Z,12.60
2017-10-06T09:37:28.227Z,12.70
2017-10-06T09:40:30.188Z,12.70
2017-10-06T09:43:33.339Z,13.60
2017-10-06T09:46:35.417Z,13.60
2017-10-06T09:49:37.799Z,14.20
2017-10-06T09:52:40.086Z,14.40
2017-10-06T09:55:42.387Z,14.20
2017-10-06T09:58:44.475Z,13.80
2017-10-06T10:01:46.863Z,13.40
2017-10-06T10:04:48.844Z,13.20
2017-10-06T10:07:51.154Z,13.20
2017-10-06T10:10:53.120Z,13.20
2017-10-06T10:13:55.428Z,13.20
2017-10-06T10:16:57.412Z,13.10
2017-10-06T10:19:59.862Z,13.00
2017-10-06T10:23:02.701Z,12.80
2017-10-06T10:26:05.099Z,12.80
2017-10-06T10:29:07.183Z,12.60
2017-10-06T10:32:09.561Z,12.30
2017-10-06T10:35:11.518Z,12.10
2017-10-06T10:38:14.651Z,11.70
2017-10-06T10:41:16.618Z,11.60
2017-10-06T10:44:19.724Z,11.40
2017-10-06T10:47:22.445Z,11.40
2017-10-06T10:50:24.918Z,11.30
2017-10-06T10:53:27.755Z,11.20
2017-10-06T10:56:30.134Z,11.20
2017-10-06T10:59:32.097Z,11.20
2017-10-06T11:02:35.192Z,11.20
2017-10-06T11:05:37.149Z,11.10
2017-10-06T11:08:39.518Z,11.10
2017-10-06T11:11:41.493Z,11.10
2017-10-06T11:14:43.880Z,11.10
2017-10-06T11:17:45.836Z,11.20
2017-10-06T11:20:48.981Z,11.90
2017-10-06T11:23:50.946Z,11.90
2017-10-06T11:26:54.095Z,12.20
2017-10-06T11:29:56.068Z,12.10
2017-10-06T11:32:58.443Z,12.10
2017-10-06T11:36:00.410Z,12.00
2017-10-06T11:39:03.543Z,11.80
2017-10-06T11:42:05.509Z,11.80
2017-10-06T11:45:08.585Z,11.80
2017-10-06T11:48:10.550Z,11.80
2017-10-06T11:51:12.866Z,12.10
2017-10-06T11:54:15.611Z,12.80
2017-10-06T11:57:17.981Z,12.80
2017-10-06T12:00:20.694Z,12.70
2017-10-06T12:03:23.078Z,12.70
2017-10-06T12:06:25.067Z,12.30
2017-10-06T12:09:27.387Z,12.00
2017-10-06T12:12:29.353Z,11.80
2017-10-06T12:15:31.744Z,11.50
2017-10-06T12:18:33.776Z,11.40
2017-10-06T12:21:36.125Z,11.30
2017-10-06T12:24:38.077Z,11.40
2017-10-06T12:27:41.164Z,12.90
2017-10-06T12:30:43.904Z,12.80
2017-10-06T12:33:46.297Z,15.20
2017-10-06T12:36:48.508Z,17.60
2017-10-06T12:39:50.875Z,19.40
2017-10-06T12:42:52.836Z,22.10
2017-10-06T12:45:55.971Z,26.00
2017-10-06T12:48:57.943Z,25.90
2017-10-06T12:52:00.354Z,25.40
2017-10-06T12:55:02.312Z,23.40
2017-10-06T12:58:05.413Z,19.40
2017-10-06T13:01:08.137Z,18.00
2017-10-06T13:04:10.743Z,18.00
2017-10-06T13:07:12.719Z,16.80
2017-10-06T13:10:15.059Z,15.90
2017-10-06T13:13:17.128Z,15.50
2017-10-06T13:16:19.533Z,15.60
2017-10-06T13:19:21.596Z,17.00
2017-10-06T13:22:23.993Z,20.30
2017-10-06T13:25:26.042Z,22.80
2017-10-06T13:28:28.441Z,24.40
2017-10-06T13:31:30.403Z,24.10
2017-10-06T13:34:33.552Z,21.80
2017-10-06T13:37:35.543Z,21.70
2017-10-06T13:40:37.911Z,21.40
2017-10-06T13:43:40.026Z,21.60
2017-10-06T13:46:42.420Z,22.50
2017-10-06T13:49:44.398Z,23.00
2017-10-06T13:52:46.781Z,22.40
2017-10-06T13:55:48.731Z,22.00
2017-10-06T13:58:51.852Z,24.70
2017-10-06T14:01:53.802Z,24.70
2017-10-06T14:04:56.147Z,25.20
2017-10-06T14:07:58.201Z,25.30
2017-10-06T14:11:01.340Z,24.10
2017-10-06T14:14:03.310Z,24.10
2017-10-06T14:17:05.720Z,24.60
2017-10-06T14:20:07.864Z,24.60
2017-10-06T14:23:10.948Z,25.00
2017-10-06T14:26:13.008Z,25.00
2017-10-06T14:29:15.322Z,25.10
2017-10-06T14:32:17.358Z,24.90
2017-10-06T14:35:19.686Z,24.80
2017-10-06T14:38:21.743Z,24.80
2017-10-06T14:41:24.131Z,24.70
2017-10-06T14:44:26.103Z,24.60
2017-10-06T14:47:28.500Z,23.80
2017-10-06T14:50:30.478Z,22.10
2017-10-06T14:53:32.874Z,20.30
2017-10-06T14:56:34.850Z,18.80
2017-10-06T14:59:37.983Z,16.80
2017-10-06T15:02:40.036Z,16.70
2017-10-06T15:05:43.169Z,15.50
2017-10-06T15:08:45.148Z,15.50
2017-10-06T15:11:47.555Z,15.10
2017-10-06T15:14:49.528Z,14.80
2017-10-06T15:17:52.032Z,14.60
2017-10-06T15:20:53.986Z,14.60
2017-10-06T15:23:57.110Z,15.00
2017-10-06T15:26:59.086Z,15.00
2017-10-06T15:30:02.215Z,15.40
2017-10-06T15:33:04.179Z,15.40
2017-10-06T15:36:07.296Z,15.30
2017-10-06T15:39:09.304Z,15.20
2017-10-06T15:42:11.695Z,15.00
2017-10-06T15:45:13.642Z,14.60
2017-10-06T15:48:16.779Z,14.20
2017-10-06T15:51:18.743Z,14.10
2017-10-06T15:54:21.139Z,14.10
2017-10-06T15:57:23.117Z,14.00
2017-10-06T16:00:25.460Z,13.90
2017-10-06T16:03:27.491Z,13.70
2017-10-06T16:06:30.608Z,13.40
2017-10-06T16:09:32.588Z,13.40
2017-10-06T16:12:34.987Z,13.30
2017-10-06T16:15:36.938Z,13.10
2017-10-06T16:18:40.134Z,12.90
2017-10-06T16:21:42.173Z,12.80
2017-10-06T16:24:44.560Z,12.80
2017-10-06T16:27:46.527Z,12.60
2017-10-06T16:30:48.920Z,12.60
2017-10-06T16:33:50.888Z,12.50
2017-10-06T16:36:54.105Z,12.20
2017-10-06T16:39:56.822Z,12.10
2017-10-06T16:42:59.144Z,12.10
2017-10-06T16:46:01.138Z,12.00
2017-10-06T16:49:03.564Z,12.00
2017-10-06T16:52:05.514Z,11.90
2017-10-06T16:55:07.879Z,11.80
2017-10-06T16:58:10.036Z,11.80
2017-10-06T17:01:13.352Z,11.70
2017-10-06T17:04:16.983Z,11.70
2017-10-06T17:07:20.311Z,11.60
2017-10-06T17:10:22.338Z,11.60
2017-10-06T17:13:24.700Z,11.60
2017-10-06T17:16:26.665Z,11.50
2017-10-06T17:19:29.062Z,11.40
2017-10-06T17:22:31.014Z,11.30
2017-10-06T17:25:33.339Z,11.30
2017-10-06T17:28:35.459Z,11.30
2017-10-06T17:31:37.915Z,11.40
2017-10-06T17:34:39.878Z,11.50
2017-10-06T17:37:42.970Z,11.60
2017-10-06T17:40:45.007Z,11.60
2017-10-06T17:43:47.669Z,11.60
2017-10-06T17:46:50.490Z,11.60
2017-10-06T17:49:52.895Z,11.60
2017-10-06T17:52:54.883Z,11.70
2017-10-06T17:55:57.286Z,11.60
2017-10-06T17:58:59.252Z,11.60
2017-10-06T18:02:01.641Z,11.60
2017-10-06T18:05:03.658Z,11.60
2017-10-06T18:08:06.124Z,11.70
2017-10-06T18:11:08.104Z,11.70
2017-10-06T18:14:11.324Z,11.70
2017-10-06T18:17:13.334Z,11.70
2017-10-06T18:20:15.729Z,11.70
2017-10-06T18:23:17.879Z,11.80
2017-10-06T18:26:21.004Z,11.80
2017-10-06T18:29:22.983Z,11.80
2017-10-06T18:32:25.288Z,11.80
2017-10-06T18:35:27.382Z,11.70
2017-10-06T18:38:29.837Z,11.70
2017-10-06T18:41:32.651Z,11.70
2017-10-06T18:44:35.072Z,11.70
2017-10-06T18:47:37.026Z,11.70
2017-10-06T18:50:40.230Z,11.70
2017-10-06T18:53:43.054Z,11.70
2017-10-06T18:56:45.446Z,11.60
2017-10-06T18:59:47.457Z,11.60
2017-10-06T19:02:49.827Z,11.50
2017-10-06T19:05:51.779Z,11.40
2017-10-06T19:08:54.113Z,11.30
2017-10-06T19:11:56.110Z,11.20
2017-10-06T19:14:58.442Z,11.10
2017-10-06T19:18:00.541Z,11.10
2017-10-06T19:21:02.860Z,11.00
2017-10-06T19:24:04.853Z,10.90
2017-10-06T19:27:07.226Z,10.90
2017-10-06T19:30:09.215Z,10.90
2017-10-06T19:33:11.604Z,10.80
2017-10-06T19:36:13.560Z,10.80
2017-10-06T19:39:16.712Z,10.90
2017-10-06T19:42:18.688Z,10.90
2017-10-06T19:45:21.007Z,10.90
2017-10-06T19:48:22.964Z,10.80
2017-10-06T19:51:25.367Z,10.80
2017-10-06T19:54:27.447Z,10.80
2017-10-06T19:57:29.832Z,10.70
2017-10-06T20:00:31.827Z,10.70
2017-10-06T20:16:05.112Z,10.70
2017-10-06T20:19:07.165Z,10.70
2017-10-06T20:22:09.574Z,10.60
2017-10-06T20:43:57.637Z,11.00
2017-10-06T20:56:37.186Z,11.20
2017-10-06T20:59:39.550Z,11.20
2017-10-06T21:02:41.508Z,11.20
2017-10-06T21:21:25.094Z,11.00
2017-10-06T21:49:29.236Z,10.30
2017-10-06T21:52:31.232Z,10.30
2017-10-06T22:11:11.344Z,9.90
2017-10-06T22:20:28.804Z,9.90
2017-10-06T22:23:30.756Z,9.90
2017-10-06T22:26:33.922Z,9.80
2017-10-06T22:29:35.979Z,9.90
2017-10-06T22:35:45.892Z,10.00
2017-10-06T22:38:48.244Z,10.00
2017-10-06T22:48:05.939Z,10.20
2017-10-06T22:51:08.679Z,10.30
2017-10-06T22:54:11.511Z,10.40
2017-10-06T22:57:13.903Z,10.40
2017-10-06T23:00:15.883Z,10.40
2017-10-06T23:03:18.287Z,10.50
2017-10-06T23:06:20.266Z,10.50
2017-10-06T23:09:22.725Z,10.50
2017-10-06T23:12:25.551Z,10.60
2017-10-06T23:18:36.343Z,10.60
2017-10-06T23:31:02.658Z,10.70
2017-10-06T23:49:44.138Z,10.20
2017-10-06T23:52:46.532Z,10.20
2017-10-06T23:58:56.349Z,10.10
